Time;durP1;ratioP1;P1;durP2;ratioP2;P2;SDS_P1;SDS_P2;PMS_P1;PMS_P2;Temp;Humidity;BMP_temperature;BMP_pressure;BME280_temperature;BME280_humidity;BME280_pressure;Samples;Min_cycle;Max_cycle;Signal;HPM_P1;HPM_P2
2021/09/12 00:01:23;;;;;;;4.70;2.50;;;16.30;64.70;;;;;;5067164;28;20029;-73
2021/09/12 00:03:49;;;;;;;4.55;2.10;;;16.30;64.70;;;;;;5065883;28;20043;-80
2021/09/12 00:06:15;;;;;;;2.88;2.58;;;16.30;64.80;;;;;;5066968;28;20028;-75
2021/09/12 00:08:41;;;;;;;5.80;2.30;;;16.30;64.80;;;;;;5062979;28;20048;-76
2021/09/12 00:11:08;;;;;;;2.88;1.92;;;16.20;64.60;;;;;;5048885;28;20040;-75
2021/09/12 00:13:34;;;;;;;3.67;2.45;;;16.20;64.70;;;;;;5049780;28;20025;-80
2021/09/12 00:16:00;;;;;;;2.85;2.17;;;16.20;64.80;;;;;;5050974;28;20037;-81
2021/09/12 00:18:26;;;;;;;3.28;2.25;;;16.20;64.80;;;;;;5054995;28;20032;-76
2021/09/12 00:20:52;;;;;;;2.58;2.10;;;16.20;64.80;;;;;;5070012;28;20062;-78
2021/09/12 00:23:18;;;;;;;4.38;2.78;;;16.20;64.80;;;;;;5070268;28;20040;-79
2021/09/12 00:25:44;;;;;;;3.58;2.30;;;16.20;64.90;;;;;;5070065;28;20048;-82
2021/09/12 00:28:11;;;;;;;3.13;2.05;;;16.20;64.90;;;;;;5067358;28;20510;-78
2021/09/12 00:30:37;;;;;;;2.38;2.17;;;16.20;65.00;;;;;;5050996;28;20475;-76
2021/09/12 00:33:03;;;;;;;3.03;2.03;;;16.20;65.00;;;;;;5061206;28;20044;-77
2021/09/12 00:35:29;;;;;;;3.55;2.50;;;16.10;64.90;;;;;;5087647;28;20044;-75
2021/09/12 00:37:55;;;;;;;4.80;2.15;;;16.20;65.10;;;;;;5071328;28;20029;-78
2021/09/12 00:40:22;;;;;;;3.15;2.08;;;16.20;65.20;;;;;;5070059;28;20431;-80
2021/09/12 00:42:49;;;;;;;2.42;2.13;;;16.20;65.80;;;;;;5069814;28;20035;-80
2021/09/12 00:45:15;;;;;;;4.85;2.33;;;16.20;65.30;;;;;;5068056;28;20052;-81
2021/09/12 00:47:41;;;;;;;3.20;2.38;;;16.20;65.30;;;;;;5044026;28;20021;-78
2021/09/12 00:50:07;;;;;;;2.92;2.38;;;16.10;65.20;;;;;;5065590;28;20024;-81
2021/09/12 00:52:36;;;;;;;2.95;2.20;;;16.20;65.40;;;;;;5068231;28;20475;-76
2021/09/12 00:55:02;;;;;;;2.67;2.42;;;16.20;65.40;;;;;;5032106;28;20039;-80
2021/09/12 00:57:32;;;;;;;4.28;2.50;;;16.20;65.50;;;;;;5049512;28;20044;-79
2021/09/12 00:59:59;;;;;;;2.28;2.00;;;16.20;65.50;;;;;;5047026;28;20033;-80
2021/09/12 01:02:25;;;;;;;4.30;2.33;;;16.20;65.50;;;;;;5047250;28;20056;-74
2021/09/12 01:04:51;;;;;;;4.53;2.38;;;16.20;65.50;;;;;;5039241;28;20543;-76
2021/09/12 01:07:17;;;;;;;4.78;2.25;;;16.20;65.60;;;;;;5047810;28;20040;-78
2021/09/12 01:09:43;;;;;;;2.67;2.20;;;16.20;65.60;;;;;;5063334;28;20560;-78
2021/09/12 01:12:10;;;;;;;4.63;2.28;;;16.30;65.80;;;;;;5067740;28;20041;-75
2021/09/12 01:14:38;;;;;;;4.07;2.35;;;16.30;65.80;;;;;;5051496;28;20044;-80
2021/09/12 01:17:05;;;;;;;3.55;2.22;;;16.30;65.80;;;;;;5058909;28;20035;-76
2021/09/12 01:19:31;;;;;;;2.83;2.22;;;16.30;65.80;;;;;;5050762;28;20029;-76
2021/09/12 01:21:59;;;;;;;3.30;2.17;;;16.30;65.90;;;;;;5047349;28;20029;-80
2021/09/12 01:24:26;;;;;;;3.55;2.83;;;16.30;65.90;;;;;;5063259;28;20040;-76
2021/09/12 01:26:53;;;;;;;2.65;1.88;;;16.30;65.90;;;;;;5068060;28;20119;-80
2021/09/12 01:29:19;;;;;;;5.40;2.30;;;16.30;65.90;;;;;;5057701;28;20495;-80
2021/09/12 01:31:45;;;;;;;3.92;2.42;;;16.30;66.00;;;;;;5040161;22;20050;-78
2021/09/12 01:34:11;;;;;;;2.25;2.05;;;16.30;66.00;;;;;;5009467;28;20037;-78
2021/09/12 01:36:38;;;;;;;3.92;2.33;;;16.40;66.70;;;;;;5010681;28;20431;-78
2021/09/12 01:39:05;;;;;;;3.45;2.22;;;16.30;66.00;;;;;;5010272;28;20064;-79
2021/09/12 01:41:32;;;;;;;3.97;2.45;;;16.30;66.10;;;;;;5010645;28;20030;-78
2021/09/12 01:43:59;;;;;;;6.13;2.63;;;16.40;66.30;;;;;;5010155;28;20038;-79
2021/09/12 01:46:27;;;;;;;4.10;2.67;;;16.30;66.20;;;;;;5017537;23;20056;-81
2021/09/12 01:48:55;;;;;;;2.97;2.47;;;16.40;66.40;;;;;;5005451;28;20375;-80
2021/09/12 01:51:21;;;;;;;2.75;2.30;;;16.40;66.40;;;;;;5014042;28;20053;-80
2021/09/12 01:53:48;;;;;;;2.50;2.30;;;16.30;66.20;;;;;;5005984;28;20034;-81
2021/09/12 01:56:14;;;;;;;6.20;2.55;;;16.40;66.50;;;;;;5031363;28;20090;-82
2021/09/12 01:58:40;;;;;;;4.82;2.47;;;16.40;66.40;;;;;;5031272;28;20058;-82
2021/09/12 02:01:06;;;;;;;3.13;2.65;;;16.30;66.30;;;;;;5015517;28;20109;-81
2021/09/12 02:03:33;;;;;;;3.03;2.50;;;16.30;66.30;;;;;;5032085;28;20022;-83
2021/09/12 02:06:00;;;;;;;3.72;2.60;;;16.40;66.50;;;;;;5031749;28;20042;-83
2021/09/12 02:08:26;;;;;;;6.50;2.63;;;16.40;66.60;;;;;;5031857;28;20034;-82
2021/09/12 02:10:52;;;;;;;2.75;2.22;;;16.30;66.40;;;;;;5023328;28;20030;-82
2021/09/12 02:13:18;;;;;;;2.70;2.20;;;16.40;66.60;;;;;;4998888;28;20026;-83
2021/09/12 02:15:44;;;;;;;4.35;2.55;;;16.30;66.40;;;;;;5031769;28;20026;-83
2021/09/12 02:18:11;;;;;;;3.28;2.30;;;16.30;66.50;;;;;;5055174;28;20032;-84
2021/09/12 02:20:38;;;;;;;3.22;2.75;;;16.30;66.50;;;;;;5054716;28;20013;-83
2021/09/12 02:23:07;;;;;;;4.05;2.10;;;16.30;66.60;;;;;;5056005;28;20037;-83
2021/09/12 02:25:34;;;;;;;4.15;2.75;;;16.30;66.60;;;;;;5054613;28;20036;-83
2021/09/12 02:28:01;;;;;;;2.80;2.28;;;16.30;66.60;;;;;;5054117;28;20033;-83
2021/09/12 02:30:28;;;;;;;3.03;2.60;;;16.30;66.70;;;;;;5055602;28;20041;-83
2021/09/12 02:32:54;;;;;;;5.15;2.58;;;16.30;66.70;;;;;;5054575;28;20017;-83
2021/09/12 02:35:20;;;;;;;2.78;2.45;;;16.30;66.70;;;;;;5055385;28;20125;-83
2021/09/12 02:37:46;;;;;;;3.95;2.38;;;16.30;66.70;;;;;;5054248;28;20044;-82
2021/09/12 02:40:12;;;;;;;3.88;2.33;;;16.30;66.80;;;;;;5055127;28;20033;-82
2021/09/12 02:42:39;;;;;;;4.05;2.53;;;16.30;66.80;;;;;;5055158;28;20038;-82
2021/09/12 02:45:07;;;;;;;2.88;2.13;;;16.30;66.80;;;;;;5054319;28;20087;-83
2021/09/12 02:47:33;;;;;;;5.93;2.83;;;16.20;66.70;;;;;;5031198;28;20045;-82
2021/09/12 02:49:59;;;;;;;2.50;2.30;;;16.20;67.20;;;;;;5017922;28;20022;-82
2021/09/12 02:52:25;;;;;;;4.68;2.80;;;16.20;66.70;;;;;;5035737;28;20021;-81
2021/09/12 02:54:51;;;;;;;3.60;2.67;;;16.20;66.80;;;;;;5010105;28;20029;-80
2021/09/12 02:57:17;;;;;;;3.47;2.80;;;16.20;66.80;;;;;;5034388;28;20049;-81
2021/09/12 02:59:43;;;;;;;3.05;2.75;;;16.20;66.80;;;;;;5018245;28;20018;-83
2021/09/12 03:02:09;;;;;;;3.08;2.50;;;16.20;66.90;;;;;;5018206;28;20018;-83
2021/09/12 03:04:34;;;;;;;2.63;2.35;;;16.20;66.90;;;;;;5034571;28;20101;-83
2021/09/12 03:07:00;;;;;;;5.78;3.00;;;16.10;66.80;;;;;;5034620;28;20048;-83
2021/09/12 03:09:26;;;;;;;2.75;2.20;;;16.10;66.80;;;;;;5035132;28;20046;-83
2021/09/12 03:11:52;;;;;;;5.55;2.78;;;16.10;66.90;;;;;;5034162;28;20037;-82
2021/09/12 03:14:19;;;;;;;3.55;2.60;;;16.00;66.70;;;;;;5033669;28;20060;-83
2021/09/12 03:16:47;;;;;;;5.93;2.67;;;16.00;66.80;;;;;;5017522;28;20030;-83
2021/09/12 03:19:14;;;;;;;3.95;2.67;;;16.00;66.80;;;;;;5016935;28;20110;-82
2021/09/12 03:21:41;;;;;;;2.53;2.30;;;15.90;66.70;;;;;;5033838;28;20018;-83
2021/09/12 03:24:07;;;;;;;3.72;2.60;;;15.90;66.70;;;;;;5034019;28;20101;-82
2021/09/12 03:26:33;;;;;;;3.92;2.60;;;15.90;66.80;;;;;;5033962;28;20019;-82
2021/09/12 03:28:59;;;;;;;2.95;2.42;;;15.80;66.60;;;;;;5015894;28;20245;-82
2021/09/12 03:31:25;;;;;;;2.92;2.50;;;15.80;66.70;;;;;;5015699;28;20046;-81
2021/09/12 03:33:51;;;;;;;7.05;2.63;;;15.80;66.80;;;;;;5016405;28;20346;-82
2021/09/12 03:36:17;;;;;;;3.33;2.63;;;15.70;66.70;;;;;;5022967;28;20041;-82
2021/09/12 03:38:43;;;;;;;2.70;2.28;;;15.70;66.80;;;;;;5012755;28;20026;-82
2021/09/12 03:41:09;;;;;;;3.25;2.35;;;15.70;66.80;;;;;;5010599;28;20117;-80
2021/09/12 03:43:35;;;;;;;4.00;2.42;;;15.70;66.90;;;;;;5002695;28;20030;-81
2021/09/12 03:46:01;;;;;;;4.63;2.40;;;15.60;66.80;;;;;;5010236;28;20058;-80
2021/09/12 03:48:27;;;;;;;3.28;2.97;;;15.60;66.90;;;;;;5010158;28;20026;-81
2021/09/12 03:50:53;;;;;;;9.13;3.28;;;15.50;67.20;;;;;;5009909;28;20038;-82
2021/09/12 03:53:20;;;;;;;5.65;2.63;;;15.50;66.80;;;;;;5011117;28;20034;-81
2021/09/12 03:55:45;;;;;;;3.92;2.42;;;15.50;66.80;;;;;;5011974;28;20146;-82
2021/09/12 03:58:11;;;;;;;2.70;2.50;;;15.50;66.90;;;;;;4993649;28;20500;-82
2021/09/12 04:00:37;;;;;;;3.25;2.40;;;15.40;66.80;;;;;;5009876;28;20034;-81
2021/09/12 04:03:03;;;;;;;3.85;2.80;;;15.40;66.80;;;;;;5011413;28;20128;-82
2021/09/12 04:05:29;;;;;;;4.63;2.63;;;15.40;66.90;;;;;;4992950;28;20041;-80
2021/09/12 04:07:55;;;;;;;2.42;2.22;;;15.40;66.90;;;;;;5009163;28;20429;-83
2021/09/12 04:10:22;;;;;;;4.90;2.58;;;15.30;66.80;;;;;;4993551;28;20037;-83
2021/09/12 04:12:48;;;;;;;2.63;2.38;;;15.30;66.80;;;;;;5010504;28;20030;-84
2021/09/12 04:15:14;;;;;;;2.80;2.08;;;15.30;66.90;;;;;;5010661;28;20482;-83
2021/09/12 04:17:40;;;;;;;2.35;2.13;;;15.30;66.90;;;;;;5018561;28;20026;-82
2021/09/12 04:20:07;;;;;;;3.38;2.38;;;15.20;66.80;;;;;;5013387;28;20036;-82
2021/09/12 04:22:34;;;;;;;2.75;2.10;;;15.20;66.80;;;;;;5021824;28;20343;-82
2021/09/12 04:24:59;;;;;;;2.53;2.30;;;15.20;66.90;;;;;;5030693;28;20049;-83
2021/09/12 04:27:25;;;;;;;3.70;2.80;;;15.10;66.70;;;;;;5030803;28;20033;-82
2021/09/12 04:29:51;;;;;;;4.05;2.40;;;15.10;66.80;;;;;;5012966;28;20040;-83
2021/09/12 04:32:17;;;;;;;5.22;2.35;;;15.10;66.80;;;;;;5012749;28;20136;-84
2021/09/12 04:34:47;;;;;;;2.83;2.60;;;15.10;66.90;;;;;;5029307;28;20034;-82
2021/09/12 04:37:16;;;;;;;2.72;2.40;;;15.10;66.90;;;;;;5028975;28;20044;-82
2021/09/12 04:39:42;;;;;;;2.70;2.50;;;15.00;66.80;;;;;;4991640;28;20046;-83
2021/09/12 04:42:09;;;;;;;3.25;2.42;;;15.00;66.90;;;;;;5010827;28;20060;-84
2021/09/12 04:44:35;;;;;;;2.95;2.60;;;15.00;67.00;;;;;;5007959;28;20137;-83
2021/09/12 04:47:01;;;;;;;2.53;2.20;;;15.00;67.00;;;;;;5031826;28;20043;-83
2021/09/12 04:49:27;;;;;;;3.33;2.50;;;14.90;66.90;;;;;;5005243;28;20077;-83
2021/09/12 04:51:53;;;;;;;2.67;2.33;;;14.90;66.90;;;;;;4993531;28;20064;-83
2021/09/12 04:54:19;;;;;;;5.63;2.58;;;14.90;66.90;;;;;;4996591;28;20038;-83
2021/09/12 04:56:45;;;;;;;2.53;2.25;;;14.90;67.00;;;;;;4997243;28;20503;-82
2021/09/12 04:59:11;;;;;;;2.47;2.13;;;14.90;67.00;;;;;;5009735;28;20049;-83
2021/09/12 05:01:37;;;;;;;3.08;2.50;;;14.90;67.00;;;;;;5013333;28;20030;-83
2021/09/12 05:04:03;;;;;;;3.70;2.78;;;14.90;67.10;;;;;;5005700;28;20234;-83
2021/09/12 05:06:29;;;;;;;2.15;1.90;;;14.90;67.10;;;;;;5005943;28;20091;-82
2021/09/12 05:08:56;;;;;;;2.35;2.03;;;14.90;67.10;;;;;;5003195;28;20060;-82
2021/09/12 05:11:22;;;;;;;3.30;2.22;;;14.80;67.00;;;;;;5010606;28;20034;-82
2021/09/12 05:13:48;;;;;;;2.72;2.22;;;14.80;67.00;;;;;;5024359;28;20026;-82
2021/09/12 05:16:14;;;;;;;3.72;2.75;;;14.80;67.00;;;;;;5028702;28;20098;-83
2021/09/12 05:18:40;;;;;;;2.78;2.30;;;14.80;67.00;;;;;;5012790;28;20128;-82
2021/09/12 05:21:06;;;;;;;4.40;2.67;;;14.80;67.10;;;;;;5009475;28;20125;-85
2021/09/12 05:23:32;;;;;;;2.67;2.45;;;14.70;66.90;;;;;;5004756;28;20022;-83
2021/09/12 05:25:58;;;;;;;3.20;2.10;;;14.70;66.90;;;;;;5019577;28;20503;-83
2021/09/12 05:28:24;;;;;;;2.95;2.40;;;14.70;67.00;;;;;;5027544;28;20476;-82
2021/09/12 05:30:50;;;;;;;4.05;2.20;;;14.70;66.90;;;;;;5027750;28;20030;-81
2021/09/12 05:33:16;;;;;;;3.40;2.47;;;14.70;67.00;;;;;;5029299;28;20121;-82
2021/09/12 05:35:44;;;;;;;5.93;2.40;;;14.70;67.00;;;;;;4987275;28;20030;-82
2021/09/12 05:38:10;;;;;;;2.30;2.10;;;14.60;66.80;;;;;;4968357;28;20041;-84
2021/09/12 05:40:36;;;;;;;2.53;2.10;;;14.60;66.80;;;;;;5003303;28;20049;-84
2021/09/12 05:43:02;;;;;;;3.10;2.40;;;14.60;66.90;;;;;;5009904;28;20132;-84
2021/09/12 05:45:29;;;;;;;2.47;2.28;;;14.60;66.90;;;;;;5009392;28;20038;-86
2021/09/12 05:47:55;;;;;;;5.93;2.53;;;14.50;66.80;;;;;;5002780;28;20108;-84
2021/09/12 05:50:21;;;;;;;3.42;2.60;;;14.50;66.80;;;;;;5009036;28;22151;-82
2021/09/12 05:52:47;;;;;;;4.97;2.40;;;14.50;66.90;;;;;;5005210;28;20056;-81
2021/09/12 05:55:12;;;;;;;2.90;2.55;;;14.60;67.60;;;;;;4991506;28;20041;-79
2021/09/12 05:57:38;;;;;;;6.15;3.40;;;14.50;67.00;;;;;;4982985;28;20096;-81
2021/09/12 06:00:06;;;;;;;3.88;3.05;;;14.50;67.20;;;;;;4992072;28;20405;-84
2021/09/12 06:02:32;;;;;;;4.00;2.80;;;14.50;67.50;;;;;;5008820;28;20076;-84
2021/09/12 06:05:02;;;;;;;5.63;2.90;;;14.50;67.50;;;;;;5008167;28;20034;-83
2021/09/12 06:07:29;;;;;;;4.00;2.95;;;14.50;67.50;;;;;;4991383;28;20133;-84
2021/09/12 06:09:56;;;;;;;5.10;2.90;;;14.50;67.60;;;;;;4992110;28;20042;-85
2021/09/12 06:12:23;;;;;;;3.97;3.10;;;14.50;67.60;;;;;;5007511;28;20025;-83
2021/09/12 06:14:49;;;;;;;3.53;2.75;;;14.50;67.60;;;;;;5007774;28;20461;-88
2021/09/12 06:17:15;;;;;;;6.85;2.97;;;14.50;67.60;;;;;;4992066;28;20048;-86
2021/09/12 06:19:41;;;;;;;4.00;2.78;;;14.50;67.60;;;;;;5028428;28;20029;-88
2021/09/12 06:22:07;;;;;;;3.72;2.75;;;14.50;67.60;;;;;;5018635;28;20033;-87
2021/09/12 06:24:34;;;;;;;3.08;2.80;;;14.50;67.60;;;;;;4988081;28;20032;-88
2021/09/12 06:27:01;;;;;;;2.70;2.38;;;14.50;67.60;;;;;;4987166;28;20398;-87
2021/09/12 06:29:27;;;;;;;3.28;2.42;;;14.50;67.60;;;;;;5006487;28;20045;-88
2021/09/12 06:31:53;;;;;;;3.80;3.00;;;14.60;67.80;;;;;;4997317;28;20041;-83
2021/09/12 06:34:19;;;;;;;2.90;2.58;;;14.70;68.00;;;;;;5008201;28;20421;-85
2021/09/12 06:36:45;;;;;;;3.22;2.85;;;14.70;67.90;;;;;;5007547;28;20037;-84
2021/09/12 06:39:11;;;;;;;3.03;2.20;;;14.80;68.00;;;;;;5010624;28;20033;-85
2021/09/12 06:41:37;;;;;;;2.90;2.40;;;14.90;68.00;;;;;;4981200;28;20040;-87
2021/09/12 06:44:04;;;;;;;3.80;2.55;;;14.90;67.80;;;;;;4999038;28;20244;-89
2021/09/12 06:46:30;;;;;;;5.80;2.88;;;15.00;67.90;;;;;;4997530;28;20050;-86
2021/09/12 06:48:56;;;;;;;3.13;2.83;;;15.00;67.90;;;;;;5007825;28;20022;-86
2021/09/12 06:51:22;;;;;;;4.70;2.80;;;15.00;68.00;;;;;;5006634;28;20044;-87
2021/09/12 06:53:48;;;;;;;3.40;2.53;;;15.10;68.30;;;;;;5004868;28;20049;-85
2021/09/12 06:56:14;;;;;;;4.60;2.90;;;15.10;68.30;;;;;;5011220;28;20195;-87
2021/09/12 06:58:42;;;;;;;3.45;2.75;;;15.10;68.30;;;;;;5016149;28;20034;-87
2021/09/12 07:01:08;;;;;;;4.53;2.75;;;15.20;68.30;;;;;;4975198;28;20037;-83
2021/09/12 07:03:34;;;;;;;4.97;2.90;;;15.30;68.30;;;;;;4998741;28;20410;-86
2021/09/12 07:06:00;;;;;;;6.88;3.10;;;15.30;68.20;;;;;;4996466;28;20042;-82
2021/09/12 07:08:26;;;;;;;3.17;2.65;;;15.30;68.20;;;;;;4995489;28;20061;-84
2021/09/12 07:10:52;;;;;;;2.95;2.50;;;15.30;68.10;;;;;;5008486;28;20057;-84
2021/09/12 07:13:18;;;;;;;3.85;2.42;;;15.30;68.10;;;;;;4991500;28;20049;-86
2021/09/12 07:15:44;;;;;;;3.60;2.80;;;15.40;68.20;;;;;;5007242;28;20113;-85
2021/09/12 07:18:10;;;;;;;3.65;3.10;;;15.40;68.20;;;;;;5011109;28;20481;-85
2021/09/12 07:20:36;;;;;;;3.97;2.45;;;15.40;68.20;;;;;;5007624;28;20037;-85
2021/09/12 07:23:02;;;;;;;2.63;2.40;;;15.40;68.20;;;;;;5014924;28;20125;-85
2021/09/12 07:25:28;;;;;;;4.10;2.17;;;15.40;68.10;;;;;;5009717;28;20088;-86
2021/09/12 07:27:55;;;;;;;3.72;2.35;;;15.40;68.10;;;;;;5026370;28;20025;-88
2021/09/12 07:30:21;;;;;;;4.28;2.60;;;15.40;68.00;;;;;;5010105;28;20129;-86
2021/09/12 07:32:47;;;;;;;2.70;2.20;;;15.50;68.20;;;;;;5025647;28;20112;-86
2021/09/12 07:35:13;;;;;;;3.13;2.55;;;15.50;68.10;;;;;;4994039;28;20089;-85
2021/09/12 07:37:39;;;;;;;4.03;2.65;;;15.50;68.10;;;;;;5023807;28;20137;-86
2021/09/12 07:40:06;;;;;;;4.22;2.53;;;15.50;68.00;;;;;;5006409;28;20057;-88
2021/09/12 07:42:34;;;;;;;4.63;2.38;;;15.60;68.20;;;;;;5030649;28;20025;-86
2021/09/12 07:45:00;;;;;;;2.75;2.20;;;15.60;68.20;;;;;;5024751;28;20172;-85
2021/09/12 07:47:26;;;;;;;2.58;2.28;;;15.60;68.10;;;;;;5015146;28;20058;-86
2021/09/12 07:49:52;;;;;;;4.63;2.63;;;15.80;68.40;;;;;;5010089;28;20420;-86
2021/09/12 07:52:18;;;;;;;2.88;2.50;;;15.80;68.30;;;;;;4992408;28;20137;-87
2021/09/12 07:54:44;;;;;;;3.22;2.28;;;15.90;68.30;;;;;;5008761;28;20052;-86
2021/09/12 07:57:10;;;;;;;3.05;2.28;;;16.10;68.40;;;;;;4992169;28;20084;-85
2021/09/12 07:59:36;;;;;;;3.95;2.47;;;16.20;68.30;;;;;;5028123;28;20426;-88
2021/09/12 08:02:02;;;;;;;3.55;2.70;;;16.30;68.20;;;;;;5010764;28;20099;-85
2021/09/12 08:04:28;;;;;;;2.72;2.30;;;16.40;68.10;;;;;;5026296;28;20191;-85
2021/09/12 08:06:54;;;;;;;2.08;1.90;;;16.40;68.00;;;;;;5010257;28;20120;-85
2021/09/12 08:09:20;;;;;;;2.72;2.28;;;16.50;68.00;;;;;;4993974;28;20034;-84
2021/09/12 08:11:46;;;;;;;2.83;2.20;;;16.60;68.10;;;;;;5008423;28;20042;-87
2021/09/12 08:14:12;;;;;;;4.38;2.42;;;16.60;68.00;;;;;;5007563;28;20058;-87
2021/09/12 08:16:38;;;;;;;3.88;2.47;;;16.60;67.90;;;;;;5006941;28;20092;-85
2021/09/12 08:19:04;;;;;;;4.30;2.42;;;16.70;68.00;;;;;;5009200;28;20029;-87
2021/09/12 08:21:30;;;;;;;4.32;2.67;;;16.80;68.00;;;;;;5010114;28;20489;-86
2021/09/12 08:23:55;;;;;;;7.13;2.70;;;16.80;67.80;;;;;;5011812;28;20442;-88
2021/09/12 08:26:22;;;;;;;2.75;2.42;;;16.90;67.90;;;;;;5007855;28;20045;-85
2021/09/12 08:28:49;;;;;;;3.72;2.47;;;16.90;67.80;;;;;;5009702;28;20037;-86
2021/09/12 08:31:15;;;;;;;5.63;2.50;;;17.00;67.80;;;;;;5011068;28;20319;-87
2021/09/12 08:33:41;;;;;;;3.97;2.78;;;17.00;67.70;;;;;;5009990;28;20095;-88
2021/09/12 08:36:07;;;;;;;2.35;2.13;;;17.10;67.80;;;;;;5011490;28;20038;-84
2021/09/12 08:38:32;;;;;;;3.35;2.00;;;17.20;67.90;;;;;;5010105;28;20117;-84
2021/09/12 08:40:59;;;;;;;2.80;2.15;;;17.20;67.80;;;;;;4993169;28;20030;-83
2021/09/12 08:43:27;;;;;;;2.70;2.20;;;17.20;67.60;;;;;;5011624;28;20080;-84
2021/09/12 08:45:53;;;;;;;3.08;2.47;;;17.30;67.70;;;;;;5028995;28;20050;-88
2021/09/12 08:48:20;;;;;;;2.70;2.42;;;17.30;67.60;;;;;;5031497;28;20145;-82
2021/09/12 08:50:47;;;;;;;5.97;3.13;;;17.40;67.70;;;;;;5029107;28;20040;-88
2021/09/12 08:53:13;;;;;;;2.80;2.17;;;17.40;67.70;;;;;;5033786;28;20290;-86
2021/09/12 08:55:40;;;;;;;3.95;2.42;;;17.50;67.80;;;;;;5043972;28;20034;-88
2021/09/12 08:58:06;;;;;;;4.88;2.75;;;17.50;67.90;;;;;;5013052;28;20021;-89
2021/09/12 09:00:32;;;;;;;5.40;2.70;;;17.60;68.00;;;;;;4996877;28;20030;-90
2021/09/12 09:03:01;;;;;;;6.82;2.67;;;17.70;68.20;;;;;;5018368;28;20025;-89
2021/09/12 09:19:23;;;;;;;4.25;2.72;;;17.90;68.20;;;;;;5017189;28;20054;-87
2021/09/12 09:23:23;;;;;;;3.45;2.65;;;18.00;68.30;;;;;;4989002;28;20105;-85
2021/09/12 09:25:52;;;;;;;3.40;2.75;;;18.00;68.30;;;;;;4965355;28;20054;-84
2021/09/12 09:28:19;;;;;;;3.15;2.85;;;18.10;68.40;;;;;;4999993;28;20034;-85
2021/09/12 09:30:57;;;;;;;5.22;3.20;;;18.10;68.50;;;;;;5028925;28;20037;-84
2021/09/12 09:33:26;;;;;;;5.85;3.15;;;18.10;68.60;;;;;;5001396;28;20578;-85
2021/09/12 09:36:08;;;;;;;3.05;2.58;;;18.20;68.70;;;;;;4992789;28;20105;-85
2021/09/12 09:38:38;;;;;;;4.22;2.95;;;18.30;68.90;;;;;;5008126;28;20401;-85
2021/09/12 09:41:13;;;;;;;6.53;3.05;;;18.40;68.90;;;;;;4988858;28;20072;-83
2021/09/12 09:43:48;;;;;;;3.40;2.80;;;18.40;68.70;;;;;;5020041;28;20039;-84
2021/09/12 09:46:34;;;;;;;5.25;3.17;;;18.50;68.70;;;;;;5011862;28;20497;-84
2021/09/12 09:49:19;;;;;;;4.40;3.25;;;18.60;68.70;;;;;;5023237;28;20041;-85
2021/09/12 09:51:50;;;;;;;4.25;3.10;;;18.70;68.60;;;;;;5027448;28;20061;-83
2021/09/12 09:54:17;;;;;;;3.05;2.75;;;18.90;68.60;;;;;;5011353;28;20112;-85
2021/09/12 09:56:48;;;;;;;2.90;2.50;;;19.00;68.60;;;;;;5027734;28;20032;-84
2021/09/12 09:59:16;;;;;;;4.57;2.65;;;19.00;68.40;;;;;;4996501;28;20128;-85
2021/09/12 10:01:49;;;;;;;4.95;2.88;;;19.10;68.40;;;;;;4992152;28;20030;-85
2021/09/12 10:04:19;;;;;;;;;;;19.20;68.30;;;;;;4992406;28;20045;-86
2021/09/12 10:06:48;;;;;;;3.72;2.67;;;19.30;68.30;;;;;;5010174;28;19975;-86
2021/09/12 10:09:15;;;;;;;5.50;3.53;;;19.40;68.30;;;;;;4992396;28;20042;-84
2021/09/12 10:12:02;;;;;;;4.15;3.10;;;19.50;68.20;;;;;;5007461;28;20038;-85
2021/09/12 10:14:33;;;;;;;5.53;2.70;;;19.60;68.00;;;;;;5009668;28;20038;-85
2021/09/12 10:17:01;;;;;;;3.85;2.75;;;19.70;67.90;;;;;;5006980;28;20026;-85
2021/09/12 10:19:32;;;;;;;4.97;2.80;;;19.80;67.80;;;;;;4990772;28;20408;-86
2021/09/12 10:22:11;;;;;;;4.25;3.05;;;19.90;67.60;;;;;;5007632;28;20428;-85
2021/09/12 10:25:02;;;;;;;3.40;2.08;;;20.00;67.50;;;;;;5008669;28;20517;-86
2021/09/12 10:27:42;;;;;;;2.88;2.55;;;20.10;67.20;;;;;;4991987;28;20034;-85
2021/09/12 10:30:19;;;;;;;2.58;2.25;;;20.20;67.00;;;;;;5009204;28;20120;-86
2021/09/12 10:32:46;;;;;;;6.10;2.35;;;20.30;66.90;;;;;;5008140;28;20030;-86
2021/09/12 10:35:12;;;;;;;2.83;2.33;;;20.40;67.00;;;;;;5008296;28;20358;-85
2021/09/12 10:37:38;;;;;;;2.67;2.47;;;20.50;66.90;;;;;;4992684;28;20040;-86
2021/09/12 10:40:04;;;;;;;4.00;2.10;;;20.50;66.60;;;;;;4992036;28;20116;-83
2021/09/12 10:42:43;;;;;;;4.85;2.90;;;20.60;66.60;;;;;;4993714;28;20125;-86
2021/09/12 10:45:26;;;;;;;4.68;2.22;;;20.70;66.40;;;;;;5012099;28;20045;-87
2021/09/12 10:48:12;;;;;;;;;;;20.80;66.20;;;;;;5006064;28;20041;-86
2021/09/12 10:50:42;;;;;;;;;;;20.90;66.60;;;;;;5027727;28;19917;-86
2021/09/12 10:53:08;;;;;;;;;;;21.00;66.70;;;;;;5021770;28;19917;-85
2021/09/12 10:55:53;;;;;;;;;;;21.10;66.70;;;;;;4992675;28;19960;-86
2021/09/12 10:58:20;;;;;;;;;;;21.20;66.90;;;;;;4999536;28;20249;-85
2021/09/12 11:00:46;;;;;;;;;;;21.20;66.80;;;;;;5029703;28;19912;-86
2021/09/12 11:03:15;;;;;;;;;;;21.30;66.90;;;;;;5042974;28;20085;-87
2021/09/12 11:05:41;;;;;;;;;;;21.30;66.80;;;;;;5013807;28;19925;-87
2021/09/12 11:08:07;;;;;;;;;;;21.40;67.00;;;;;;5021393;28;19980;-84
2021/09/12 11:10:37;;;;;;;;;;;21.50;67.10;;;;;;5008504;28;19909;-84
2021/09/12 11:13:03;;;;;;;;;;;21.60;67.20;;;;;;5020886;28;19909;-85
2021/09/12 11:15:29;;;;;;;;;;;21.70;67.30;;;;;;4999114;28;20296;-83
2021/09/12 11:17:55;;;;;;;;;;;21.80;67.20;;;;;;5013317;28;19909;-84
2021/09/12 11:20:20;;;;;;;;;;;21.90;67.30;;;;;;5008615;28;19910;-82
2021/09/12 11:22:50;;;;;;;;;;;22.00;67.30;;;;;;5011342;28;19949;-86
2021/09/12 11:25:19;;;;;;;;;;;22.10;67.30;;;;;;5009560;28;19917;-83
2021/09/12 11:27:44;;;;;;;;;;;22.20;67.30;;;;;;5007737;28;20048;-84
2021/09/12 11:30:11;;;;;;;;;;;22.20;67.20;;;;;;5007852;28;20012;-85
2021/09/12 11:32:48;;;;;;;;;;;22.20;67.20;;;;;;5007207;28;19916;-86
2021/09/12 11:35:14;;;;;;;;;;;22.20;67.80;;;;;;5007367;28;20007;-83
2021/09/12 11:37:40;;;;;;;;;;;22.10;67.20;;;;;;5012292;28;19952;-90
2021/09/12 11:40:08;;;;;;;;;;;22.10;67.20;;;;;;5028945;28;19913;-84
2021/09/12 11:42:34;;;;;;;;;;;22.20;67.40;;;;;;5026894;28;20317;-86
2021/09/12 11:45:00;;;;;;;;;;;22.20;67.40;;;;;;5028254;28;19927;-91
2021/09/12 11:47:26;;;;;;;;;;;22.10;67.20;;;;;;5003889;28;19936;-85
2021/09/12 11:49:59;;;;;;;;;;;22.10;67.30;;;;;;4990003;28;19952;-83
2021/09/12 11:52:31;;;;;;;;;;;22.10;67.30;;;;;;5008643;28;19928;-86
2021/09/12 11:54:56;;;;;;;;;;;22.10;67.30;;;;;;5018397;28;20008;-84
2021/09/12 11:57:22;;;;;;;;;;;22.10;67.30;;;;;;5010004;28;20051;-84
2021/09/12 11:59:48;;;;;;;;;;;22.20;67.40;;;;;;5025974;28;19951;-85
2021/09/12 12:02:22;;;;;;;;;;;22.20;67.40;;;;;;5023388;28;19956;-83
2021/09/12 12:07:09;;;;;;;;;;;22.30;66.90;;;;;;5084345;27;19917;-80
2021/09/12 12:09:46;;;;;;;;;;;22.40;67.40;;;;;;5084850;28;20380;-77
2021/09/12 12:12:14;;;;;;;;;;;22.50;67.40;;;;;;5084805;28;19920;-78
2021/09/12 12:14:44;;;;;;;;;;;22.60;67.50;;;;;;5117082;27;20355;-79
2021/09/12 12:25:25;;;;;;;;;;;22.90;66.70;;;;;;5146713;27;19911;-78
2021/09/12 12:27:53;;;;;;;;;;;23.00;67.10;;;;;;5128945;27;19971;-77
2021/09/12 12:42:08;;;;;;;;;;;23.30;66.40;;;;;;5119717;27;19919;-80
2021/09/12 12:44:42;;;;;;;;;;;23.30;66.70;;;;;;5104463;28;19916;-81
2021/09/12 12:47:08;;;;;;;;;;;23.30;66.80;;;;;;5107954;28;20269;-80
2021/09/12 12:49:34;;;;;;;;;;;23.40;67.00;;;;;;5105066;28;19998;-81
2021/09/12 12:52:14;;;;;;;;;;;23.50;67.10;;;;;;5105418;28;19912;-80
2021/09/12 12:54:41;;;;;;;;;;;23.50;67.10;;;;;;5081414;28;19913;-79
2021/09/12 12:57:11;;;;;;;;;;;23.60;67.20;;;;;;5065420;28;19912;-79
2021/09/12 12:59:44;;;;;;;;;;;23.70;67.30;;;;;;5102540;28;19934;-79
2021/09/12 13:02:10;;;;;;;;;;;23.70;67.20;;;;;;5099421;28;19915;-80
2021/09/12 13:04:36;;;;;;;;;;;23.80;67.30;;;;;;5108454;28;20037;-79
2021/09/12 13:07:03;;;;;;;;;;;23.80;67.20;;;;;;5127820;28;19951;-79
2021/09/12 13:09:29;;;;;;;;;;;23.80;67.20;;;;;;5111700;28;19916;-80
2021/09/12 13:11:55;;;;;;;;;;;23.80;67.10;;;;;;5097340;22;19936;-75
2021/09/12 13:14:21;;;;;;;;;;;23.80;67.10;;;;;;5079133;28;19917;-75
2021/09/12 13:16:46;;;;;;;;;;;23.80;67.00;;;;;;5082344;28;20352;-74
2021/09/12 13:19:12;;;;;;;;;;;23.90;67.10;;;;;;5063488;28;19912;-76
2021/09/12 13:21:38;;;;;;;;;;;23.90;67.10;;;;;;5063535;28;19942;-76
2021/09/12 13:24:05;;;;;;;;;;;23.90;67.00;;;;;;5042193;28;19913;-80
2021/09/12 13:26:31;;;;;;;;;;;24.00;67.20;;;;;;5026542;28;19931;-80
2021/09/12 13:28:56;;;;;;;;;;;24.00;67.10;;;;;;5028995;28;19912;-79
2021/09/12 13:31:22;;;;;;;;;;;24.00;67.00;;;;;;5063659;28;19916;-79
2021/09/12 13:34:57;;;;;;;;;;;24.00;66.50;;;;;;5105217;27;19912;-79
2021/09/12 13:37:23;;;;;;;;;;;24.00;66.90;;;;;;5138054;27;19916;-80
2021/09/12 13:39:49;;;;;;;;;;;24.00;66.90;;;;;;5106276;28;20409;-79
2021/09/12 13:42:15;;;;;;;;;;;24.00;66.80;;;;;;5094009;28;19928;-80